Esmeralda — PBLH — position and weather

sailwx.info

Track history (hours):
 
Tides and Currents Weather Stations Pressure Air Temp Water Temp Dewpoint Dewpoint Depression Visibility Wind Speed Wind Dir Waves Ship Positions

Esmeralda

Last reported at 2018-Apr-20 16:30 UTC. Time now 2018-Apr-20 16:47 UTC.
Position N 53°24' E 014°36'.

Length 122 m; draft 5 m.

Type: Cargo ship. MMSI: 246127000.

Date/timePositionNaut miles runAvg speedWind from/ knotsBaromVisibWave heightAir tempDewpointWater temp
2018-Apr-20 16:30N 53°24' E 014°36'0 0.0
2018-Apr-20 16:00N 53°24' E 014°36'0 0.0
2018-Apr-20 15:30N 53°24' E 014°36'0 0.0
2018-Apr-20 14:57N 53°24' E 014°36'0 0.0
2018-Apr-20 14:30N 53°24' E 014°36'0 0.0
2018-Apr-20 13:57N 53°24' E 014°36'0 0.0
2018-Apr-20 13:30N 53°24' E 014°36'0 0.0
2018-Apr-20 12:54N 53°24' E 014°36'0 0.0
2018-Apr-20 12:30N 53°24' E 014°36'0 0.0
2018-Apr-20 11:54N 53°24' E 014°36'0 0.0
2018-Apr-20 11:30N 53°24' E 014°36'0 0.0
2018-Apr-20 11:00N 53°24' E 014°36'0 0.0
2018-Apr-20 10:30N 53°24' E 014°36'0 0.0
2018-Apr-20 10:00N 53°24' E 014°36'0 0.0
2018-Apr-20 09:30N 53°24' E 014°36'0 0.2
2018-Apr-20 08:59N 53°24' E 014°36'3 5.0
2018-Apr-20 08:29N 53°27' E 014°36'4 8.0
2018-Apr-20 07:58N 53°31' E 014°38'4 9.1
2018-Apr-20 07:30N 53°35' E 014°36'5 9.9
2018-Apr-20 07:00N 53°39' E 014°33'610.8
2018-Apr-20 06:30N 53°44' E 014°27'64 9.7
2018-Apr-19 23:52N 54°41' E 013°36'29 9.7
2018-Apr-19 20:53N 54°40' E 012°46'710.6
2018-Apr-19 20:15N 54°37' E 012°35'310.6
2018-Apr-19 20:00N 54°36' E 012°31'610.7
2018-Apr-19 19:28N 54°33' E 012°23'510.6
2018-Apr-19 19:00N 54°30' E 012°16'510.9
2018-Apr-19 18:30N 54°25' E 012°11'510.5
2018-Apr-19 18:00N 54°24' E 012°02'1010.7
2018-Apr-19 17:04N 54°25' E 011°45'110.7
2018-Apr-19 17:00N 54°25' E 011°44'510.8
2018-Apr-19 16:30N 54°27' E 011°36'611.2
2018-Apr-19 16:00N 54°30' E 011°27'612.4
2018-Apr-19 15:29N 54°33' E 011°17'611.7
2018-Apr-19 15:00N 54°35' E 011°08'510.8
2018-Apr-19 14:30N 54°35' E 010°59'611.0
2018-Apr-19 14:00N 54°34' E 010°50'510.5
2018-Apr-19 13:30N 54°34' E 010°41'510.0
2018-Apr-19 13:00N 54°35' E 010°32'510.5
2018-Apr-19 12:30N 54°38' E 010°25'610.5
2018-Apr-19 11:58N 54°41' E 010°17'710.3
2018-Apr-19 11:18N 54°47' E 010°11'310.7
2018-Apr-19 11:00N 54°50' E 010°09'510.7
2018-Apr-19 10:30N 54°55' E 010°07'510.8
2018-Apr-19 10:00N 54°60' E 010°02'510.3
2018-Apr-19 09:30N 55°02' E 009°55'1210.4
2018-Apr-19 08:20N 55°14' E 009°48'18 2.8
2018-Apr-19 01:58N 55°31' E 009°37'  
2018-Apr-15 13:25N 54°55' E 010°08'513.2
2018-Apr-15 13:00N 54°50' E 010°11'713.0
2018-Apr-15 12:30N 54°44' E 010°15'912.6
2018-Apr-15 11:49N 54°38' E 010°26'413.1
2018-Apr-15 11:31N 54°36' E 010°33'612.6
2018-Apr-15 11:00N 54°36' E 010°43'612.5
2018-Apr-15 10:30N 54°36' E 010°54'612.8
2018-Apr-15 10:00N 54°36' E 011°05'612.8
2018-Apr-15 09:30N 54°35' E 011°16'712.9
2018-Apr-15 09:00N 54°32' E 011°26'713.1
2018-Apr-15 08:30N 54°29' E 011°36'813.2
2018-Apr-15 07:52N 54°26' E 011°50'513.1
2018-Apr-15 07:30N 54°26' E 011°59'612.7
2018-Apr-15 07:00N 54°28' E 012°09'7711.7
2018-Apr-15 00:25N 54°55' E 014°13'912.8
2018-Apr-14 23:42N 54°54' E 014°29'312.9
2018-Apr-14 23:30N 54°54' E 014°34'612.9
2018-Apr-14 23:00N 54°54' E 014°45'612.9
2018-Apr-14 22:30N 54°54' E 014°56'612.8
2018-Apr-14 22:00N 54°55' E 015°07'812.6
2018-Apr-14 21:24N 54°58' E 015°20'612.9
2018-Apr-14 20:57N 55°00' E 015°29'613.0
2018-Apr-14 20:29N 55°03' E 015°38'  
Track history (hours):
 
Tides and Currents Weather Stations Pressure Air Temp Water Temp Dewpoint Dewpoint Depression Visibility Wind Speed Wind Dir Waves Ship Positions

Esmeralda

Last reported at 2018-Apr-20 16:30 UTC. Time now 2018-Apr-20 16:47 UTC.
Position N 53°24' E 014°36'.

Length 122 m; draft 5 m.

Type: Cargo ship. MMSI: 246127000.

Date/timePositionNaut miles runAvg speedWind from/ knotsBaromVisibWave heightAir tempDewpointWater temp
2018-Apr-20 16:30N 53°24' E 014°36'0 0.0
2018-Apr-20 16:00N 53°24' E 014°36'0 0.0
2018-Apr-20 15:30N 53°24' E 014°36'0 0.0
2018-Apr-20 14:57N 53°24' E 014°36'0 0.0
2018-Apr-20 14:30N 53°24' E 014°36'0 0.0
2018-Apr-20 13:57N 53°24' E 014°36'0 0.0
2018-Apr-20 13:30N 53°24' E 014°36'0 0.0
2018-Apr-20 12:54N 53°24' E 014°36'0 0.0
2018-Apr-20 12:30N 53°24' E 014°36'0 0.0
2018-Apr-20 11:54N 53°24' E 014°36'0 0.0
2018-Apr-20 11:30N 53°24' E 014°36'0 0.0
2018-Apr-20 11:00N 53°24' E 014°36'0 0.0
2018-Apr-20 10:30N 53°24' E 014°36'0 0.0
2018-Apr-20 10:00N 53°24' E 014°36'0 0.0
2018-Apr-20 09:30N 53°24' E 014°36'0 0.2
2018-Apr-20 08:59N 53°24' E 014°36'3 5.0
2018-Apr-20 08:29N 53°27' E 014°36'4 8.0
2018-Apr-20 07:58N 53°31' E 014°38'4 9.1
2018-Apr-20 07:30N 53°35' E 014°36'5 9.9
2018-Apr-20 07:00N 53°39' E 014°33'610.8
2018-Apr-20 06:30N 53°44' E 014°27'64 9.7
2018-Apr-19 23:52N 54°41' E 013°36'29 9.7
2018-Apr-19 20:53N 54°40' E 012°46'710.6
2018-Apr-19 20:15N 54°37' E 012°35'310.6
2018-Apr-19 20:00N 54°36' E 012°31'610.7
2018-Apr-19 19:28N 54°33' E 012°23'510.6
2018-Apr-19 19:00N 54°30' E 012°16'510.9
2018-Apr-19 18:30N 54°25' E 012°11'510.5
2018-Apr-19 18:00N 54°24' E 012°02'1010.7
2018-Apr-19 17:04N 54°25' E 011°45'110.7
2018-Apr-19 17:00N 54°25' E 011°44'510.8
2018-Apr-19 16:30N 54°27' E 011°36'611.2
2018-Apr-19 16:00N 54°30' E 011°27'612.4
2018-Apr-19 15:29N 54°33' E 011°17'611.7
2018-Apr-19 15:00N 54°35' E 011°08'510.8
2018-Apr-19 14:30N 54°35' E 010°59'611.0
2018-Apr-19 14:00N 54°34' E 010°50'510.5
2018-Apr-19 13:30N 54°34' E 010°41'510.0
2018-Apr-19 13:00N 54°35' E 010°32'510.5
2018-Apr-19 12:30N 54°38' E 010°25'610.5
2018-Apr-19 11:58N 54°41' E 010°17'710.3
2018-Apr-19 11:18N 54°47' E 010°11'310.7
2018-Apr-19 11:00N 54°50' E 010°09'510.7
2018-Apr-19 10:30N 54°55' E 010°07'510.8
2018-Apr-19 10:00N 54°60' E 010°02'510.3
2018-Apr-19 09:30N 55°02' E 009°55'1210.4
2018-Apr-19 08:20N 55°14' E 009°48'18 2.8
2018-Apr-19 01:58N 55°31' E 009°37'  
2018-Apr-15 13:25N 54°55' E 010°08'513.2
2018-Apr-15 13:00N 54°50' E 010°11'713.0
2018-Apr-15 12:30N 54°44' E 010°15'912.6
2018-Apr-15 11:49N 54°38' E 010°26'413.1
2018-Apr-15 11:31N 54°36' E 010°33'612.6
2018-Apr-15 11:00N 54°36' E 010°43'612.5
2018-Apr-15 10:30N 54°36' E 010°54'612.8
2018-Apr-15 10:00N 54°36' E 011°05'612.8
2018-Apr-15 09:30N 54°35' E 011°16'712.9
2018-Apr-15 09:00N 54°32' E 011°26'713.1
2018-Apr-15 08:30N 54°29' E 011°36'813.2
2018-Apr-15 07:52N 54°26' E 011°50'513.1
2018-Apr-15 07:30N 54°26' E 011°59'612.7
2018-Apr-15 07:00N 54°28' E 012°09'7711.7
2018-Apr-15 00:25N 54°55' E 014°13'912.8
2018-Apr-14 23:42N 54°54' E 014°29'312.9
2018-Apr-14 23:30N 54°54' E 014°34'612.9
2018-Apr-14 23:00N 54°54' E 014°45'612.9
2018-Apr-14 22:30N 54°54' E 014°56'612.8
2018-Apr-14 22:00N 54°55' E 015°07'812.6
2018-Apr-14 21:24N 54°58' E 015°20'612.9
2018-Apr-14 20:57N 55°00' E 015°29'613.0
2018-Apr-14 20:29N 55°03' E 015°38'  

Dump ship's entire track history